sensor_id;sensor_type;location;lat;lon;timestamp;P1;durP1;ratioP1;P2;durP2;ratioP2
43809;SDS011;29440;48.208;11.162;2023-08-01T00:00:00;3.45;;;1.23;;
43809;SDS011;29440;48.208;11.162;2023-08-01T00:02:28;4.13;;;1.65;;
43809;SDS011;29440;48.208;11.162;2023-08-01T00:04:54;2.63;;;1.70;;
43809;SDS011;29440;48.208;11.162;2023-08-01T00:07:19;4.75;;;1.80;;
43809;SDS011;29440;48.208;11.162;2023-08-01T00:09:45;3.45;;;1.40;;
43809;SDS011;29440;48.208;11.162;2023-08-01T00:12:10;3.47;;;1.30;;
43809;SDS011;29440;48.208;11.162;2023-08-01T00:14:36;4.95;;;1.63;;
43809;SDS011;29440;48.208;11.162;2023-08-01T00:17:02;2.15;;;1.27;;
43809;SDS011;29440;48.208;11.162;2023-08-01T00:19:28;4.68;;;1.60;;
43809;SDS011;29440;48.208;11.162;2023-08-01T00:21:53;4.47;;;1.85;;
43809;SDS011;29440;48.208;11.162;2023-08-01T00:24:19;3.05;;;2.00;;
43809;SDS011;29440;48.208;11.162;2023-08-01T00:26:44;3.65;;;1.63;;
43809;SDS011;29440;48.208;11.162;2023-08-01T00:29:10;4.07;;;1.48;;
43809;SDS011;29440;48.208;11.162;2023-08-01T00:31:35;3.28;;;1.70;;
43809;SDS011;29440;48.208;11.162;2023-08-01T00:34:01;3.67;;;2.17;;
43809;SDS011;29440;48.208;11.162;2023-08-01T00:36:26;4.10;;;1.90;;
43809;SDS011;29440;48.208;11.162;2023-08-01T00:38:52;5.47;;;1.80;;
43809;SDS011;29440;48.208;11.162;2023-08-01T00:41:18;3.35;;;1.65;;
43809;SDS011;29440;48.208;11.162;2023-08-01T00:43:43;5.05;;;2.50;;
43809;SDS011;29440;48.208;11.162;2023-08-01T00:46:09;2.90;;;1.90;;
43809;SDS011;29440;48.208;11.162;2023-08-01T00:48:35;2.92;;;1.50;;
43809;SDS011;29440;48.208;11.162;2023-08-01T00:51:01;4.95;;;1.73;;
43809;SDS011;29440;48.208;11.162;2023-08-01T00:53:30;2.35;;;1.67;;
43809;SDS011;29440;48.208;11.162;2023-08-01T00:55:56;3.40;;;1.58;;
43809;SDS011;29440;48.208;11.162;2023-08-01T00:58:23;3.00;;;1.83;;
43809;SDS011;29440;48.208;11.162;2023-08-01T01:00:48;2.50;;;1.45;;
43809;SDS011;29440;48.208;11.162;2023-08-01T01:03:14;3.65;;;1.52;;
43809;SDS011;29440;48.208;11.162;2023-08-01T01:05:43;3.20;;;1.70;;
43809;SDS011;29440;48.208;11.162;2023-08-01T01:08:27;3.33;;;1.52;;
43809;SDS011;29440;48.208;11.162;2023-08-01T01:10:54;3.33;;;1.85;;
43809;SDS011;29440;48.208;11.162;2023-08-01T01:13:20;3.40;;;2.30;;
43809;SDS011;29440;48.208;11.162;2023-08-01T01:15:45;4.57;;;1.50;;
43809;SDS011;29440;48.208;11.162;2023-08-01T01:18:11;2.75;;;1.38;;
43809;SDS011;29440;48.208;11.162;2023-08-01T01:20:36;4.15;;;1.83;;
43809;SDS011;29440;48.208;11.162;2023-08-01T01:23:05;6.55;;;1.85;;
43809;SDS011;29440;48.208;11.162;2023-08-01T01:25:33;4.18;;;1.88;;
43809;SDS011;29440;48.208;11.162;2023-08-01T01:27:59;4.25;;;1.80;;
43809;SDS011;29440;48.208;11.162;2023-08-01T01:30:29;4.43;;;1.52;;
43809;SDS011;29440;48.208;11.162;2023-08-01T01:32:55;6.07;;;1.95;;
43809;SDS011;29440;48.208;11.162;2023-08-01T01:35:20;4.30;;;2.00;;
43809;SDS011;29440;48.208;11.162;2023-08-01T01:37:46;5.07;;;1.70;;
43809;SDS011;29440;48.208;11.162;2023-08-01T01:40:12;3.13;;;1.45;;
43809;SDS011;29440;48.208;11.162;2023-08-01T01:42:37;3.13;;;1.75;;
43809;SDS011;29440;48.208;11.162;2023-08-01T01:45:03;4.75;;;1.55;;
43809;SDS011;29440;48.208;11.162;2023-08-01T01:47:29;4.90;;;1.63;;
43809;SDS011;29440;48.208;11.162;2023-08-01T01:49:54;4.60;;;1.88;;
43809;SDS011;29440;48.208;11.162;2023-08-01T01:52:20;3.85;;;1.58;;
43809;SDS011;29440;48.208;11.162;2023-08-01T01:54:46;3.50;;;1.80;;
43809;SDS011;29440;48.208;11.162;2023-08-01T01:57:11;3.53;;;1.80;;
43809;SDS011;29440;48.208;11.162;2023-08-01T01:59:37;3.30;;;1.80;;
43809;SDS011;29440;48.208;11.162;2023-08-01T02:02:02;3.80;;;1.73;;
43809;SDS011;29440;48.208;11.162;2023-08-01T02:04:29;3.85;;;1.92;;
43809;SDS011;29440;48.208;11.162;2023-08-01T02:06:55;5.97;;;2.08;;
43809;SDS011;29440;48.208;11.162;2023-08-01T02:09:20;4.53;;;1.90;;
43809;SDS011;29440;48.208;11.162;2023-08-01T02:11:46;3.42;;;2.00;;
43809;SDS011;29440;48.208;11.162;2023-08-01T02:14:11;3.88;;;2.20;;
43809;SDS011;29440;48.208;11.162;2023-08-01T02:16:38;4.47;;;2.17;;
43809;SDS011;29440;48.208;11.162;2023-08-01T02:19:03;3.65;;;2.15;;
43809;SDS011;29440;48.208;11.162;2023-08-01T02:21:29;3.53;;;2.33;;
43809;SDS011;29440;48.208;11.162;2023-08-01T02:23:54;4.22;;;1.90;;
43809;SDS011;29440;48.208;11.162;2023-08-01T02:26:20;3.25;;;1.95;;
43809;SDS011;29440;48.208;11.162;2023-08-01T02:28:47;3.88;;;2.03;;
43809;SDS011;29440;48.208;11.162;2023-08-01T02:31:13;3.83;;;2.15;;
43809;SDS011;29440;48.208;11.162;2023-08-01T02:33:38;4.05;;;1.67;;
43809;SDS011;29440;48.208;11.162;2023-08-01T02:36:04;4.95;;;1.75;;
43809;SDS011;29440;48.208;11.162;2023-08-01T02:38:29;5.28;;;2.30;;
43809;SDS011;29440;48.208;11.162;2023-08-01T02:40:55;4.10;;;1.95;;
43809;SDS011;29440;48.208;11.162;2023-08-01T02:43:20;3.97;;;2.22;;
43809;SDS011;29440;48.208;11.162;2023-08-01T02:45:46;4.85;;;2.00;;
43809;SDS011;29440;48.208;11.162;2023-08-01T02:48:11;5.50;;;2.05;;
43809;SDS011;29440;48.208;11.162;2023-08-01T02:50:37;3.75;;;1.95;;
43809;SDS011;29440;48.208;11.162;2023-08-01T02:53:04;4.43;;;2.22;;
43809;SDS011;29440;48.208;11.162;2023-08-01T02:55:29;3.42;;;2.10;;
43809;SDS011;29440;48.208;11.162;2023-08-01T02:57:55;2.88;;;1.67;;
43809;SDS011;29440;48.208;11.162;2023-08-01T03:00:21;4.18;;;2.35;;
43809;SDS011;29440;48.208;11.162;2023-08-01T03:02:47;5.43;;;2.60;;
43809;SDS011;29440;48.208;11.162;2023-08-01T03:05:12;3.53;;;2.03;;
43809;SDS011;29440;48.208;11.162;2023-08-01T03:07:38;3.28;;;2.00;;
43809;SDS011;29440;48.208;11.162;2023-08-01T03:10:03;3.63;;;2.20;;
43809;SDS011;29440;48.208;11.162;2023-08-01T03:12:29;3.45;;;1.67;;
43809;SDS011;29440;48.208;11.162;2023-08-01T03:14:55;4.45;;;1.90;;
43809;SDS011;29440;48.208;11.162;2023-08-01T03:17:21;5.18;;;2.40;;
43809;SDS011;29440;48.208;11.162;2023-08-01T03:20:03;3.58;;;2.38;;
43809;SDS011;29440;48.208;11.162;2023-08-01T03:22:29;5.45;;;2.08;;
43809;SDS011;29440;48.208;11.162;2023-08-01T03:24:55;5.25;;;2.30;;
43809;SDS011;29440;48.208;11.162;2023-08-01T03:27:20;4.82;;;2.35;;
43809;SDS011;29440;48.208;11.162;2023-08-01T03:29:46;5.00;;;2.30;;
43809;SDS011;29440;48.208;11.162;2023-08-01T03:32:11;5.97;;;2.38;;
43809;SDS011;29440;48.208;11.162;2023-08-01T03:34:37;3.40;;;2.05;;
43809;SDS011;29440;48.208;11.162;2023-08-01T03:37:04;2.83;;;1.92;;
43809;SDS011;29440;48.208;11.162;2023-08-01T03:39:29;3.42;;;2.20;;
43809;SDS011;29440;48.208;11.162;2023-08-01T03:41:55;4.18;;;2.20;;
43809;SDS011;29440;48.208;11.162;2023-08-01T03:44:20;4.82;;;2.55;;
43809;SDS011;29440;48.208;11.162;2023-08-01T03:46:46;4.72;;;2.20;;
43809;SDS011;29440;48.208;11.162;2023-08-01T03:49:12;4.70;;;2.13;;
43809;SDS011;29440;48.208;11.162;2023-08-01T03:51:38;6.15;;;2.88;;
43809;SDS011;29440;48.208;11.162;2023-08-01T03:54:03;4.32;;;2.50;;
43809;SDS011;29440;48.208;11.162;2023-08-01T03:56:29;6.03;;;2.50;;
43809;SDS011;29440;48.208;11.162;2023-08-01T03:58:55;5.25;;;2.13;;
43809;SDS011;29440;48.208;11.162;2023-08-01T04:01:20;6.80;;;2.47;;
43809;SDS011;29440;48.208;11.162;2023-08-01T04:03:46;5.97;;;2.70;;
43809;SDS011;29440;48.208;11.162;2023-08-01T04:06:11;4.70;;;2.53;;
43809;SDS011;29440;48.208;11.162;2023-08-01T04:08:40;3.92;;;2.42;;
43809;SDS011;29440;48.208;11.162;2023-08-01T04:11:06;6.38;;;2.60;;
43809;SDS011;29440;48.208;11.162;2023-08-01T04:13:31;5.00;;;2.78;;
43809;SDS011;29440;48.208;11.162;2023-08-01T04:15:57;6.65;;;2.53;;
43809;SDS011;29440;48.208;11.162;2023-08-01T04:18:22;6.28;;;2.92;;
43809;SDS011;29440;48.208;11.162;2023-08-01T04:20:54;5.05;;;2.97;;
43809;SDS011;29440;48.208;11.162;2023-08-01T04:23:20;5.60;;;2.60;;
43809;SDS011;29440;48.208;11.162;2023-08-01T04:25:46;5.93;;;3.03;;
43809;SDS011;29440;48.208;11.162;2023-08-01T04:28:12;5.80;;;3.17;;
43809;SDS011;29440;48.208;11.162;2023-08-01T04:30:37;5.65;;;2.80;;
43809;SDS011;29440;48.208;11.162;2023-08-01T04:33:03;6.63;;;2.92;;
43809;SDS011;29440;48.208;11.162;2023-08-01T04:35:29;6.10;;;3.20;;
43809;SDS011;29440;48.208;11.162;2023-08-01T04:37:55;6.22;;;2.90;;
43809;SDS011;29440;48.208;11.162;2023-08-01T04:40:20;7.20;;;2.95;;
43809;SDS011;29440;48.208;11.162;2023-08-01T04:42:46;5.40;;;3.15;;
43809;SDS011;29440;48.208;11.162;2023-08-01T04:45:11;5.18;;;3.20;;
43809;SDS011;29440;48.208;11.162;2023-08-01T04:47:37;4.88;;;2.92;;
43809;SDS011;29440;48.208;11.162;2023-08-01T04:50:03;5.72;;;3.15;;
43809;SDS011;29440;48.208;11.162;2023-08-01T04:52:28;9.82;;;4.05;;
43809;SDS011;29440;48.208;11.162;2023-08-01T04:54:54;4.88;;;2.80;;
43809;SDS011;29440;48.208;11.162;2023-08-01T04:57:19;8.45;;;3.20;;
43809;SDS011;29440;48.208;11.162;2023-08-01T04:59:45;5.45;;;3.03;;
43809;SDS011;29440;48.208;11.162;2023-08-01T05:02:10;6.65;;;2.70;;
43809;SDS011;29440;48.208;11.162;2023-08-01T05:04:36;9.52;;;2.85;;
43809;SDS011;29440;48.208;11.162;2023-08-01T05:07:02;5.60;;;2.80;;
43809;SDS011;29440;48.208;11.162;2023-08-01T05:09:30;6.30;;;3.30;;
43809;SDS011;29440;48.208;11.162;2023-08-01T05:11:57;5.60;;;2.70;;
43809;SDS011;29440;48.208;11.162;2023-08-01T05:14:22;3.65;;;2.60;;
43809;SDS011;29440;48.208;11.162;2023-08-01T05:16:48;5.22;;;2.85;;
43809;SDS011;29440;48.208;11.162;2023-08-01T05:19:13;6.20;;;3.78;;
43809;SDS011;29440;48.208;11.162;2023-08-01T05:21:39;7.53;;;2.65;;
43809;SDS011;29440;48.208;11.162;2023-08-01T05:24:04;5.43;;;2.65;;
43809;SDS011;29440;48.208;11.162;2023-08-01T05:26:30;6.93;;;2.90;;
43809;SDS011;29440;48.208;11.162;2023-08-01T05:28:55;6.78;;;3.00;;
43809;SDS011;29440;48.208;11.162;2023-08-01T05:31:21;5.75;;;2.90;;
43809;SDS011;29440;48.208;11.162;2023-08-01T05:33:46;5.28;;;2.47;;
43809;SDS011;29440;48.208;11.162;2023-08-01T05:36:12;7.47;;;2.92;;
43809;SDS011;29440;48.208;11.162;2023-08-01T05:38:38;4.88;;;2.47;;
43809;SDS011;29440;48.208;11.162;2023-08-01T05:41:03;15.82;;;3.03;;
43809;SDS011;29440;48.208;11.162;2023-08-01T05:43:29;5.53;;;2.85;;
43809;SDS011;29440;48.208;11.162;2023-08-01T05:45:54;5.72;;;2.80;;
43809;SDS011;29440;48.208;11.162;2023-08-01T05:48:20;6.32;;;2.72;;
43809;SDS011;29440;48.208;11.162;2023-08-01T05:50:46;4.47;;;2.33;;
43809;SDS011;29440;48.208;11.162;2023-08-01T05:53:11;5.90;;;2.53;;
43809;SDS011;29440;48.208;11.162;2023-08-01T05:55:37;6.78;;;2.25;;
43809;SDS011;29440;48.208;11.162;2023-08-01T05:58:02;6.05;;;2.20;;
43809;SDS011;29440;48.208;11.162;2023-08-01T06:00:28;3.63;;;2.30;;
43809;SDS011;29440;48.208;11.162;2023-08-01T06:02:55;4.50;;;2.50;;
43809;SDS011;29440;48.208;11.162;2023-08-01T06:05:21;3.58;;;1.98;;
43809;SDS011;29440;48.208;11.162;2023-08-01T06:07:46;4.22;;;1.65;;
43809;SDS011;29440;48.208;11.162;2023-08-01T06:10:12;6.40;;;2.10;;
43809;SDS011;29440;48.208;11.162;2023-08-01T06:12:37;9.02;;;2.53;;
43809;SDS011;29440;48.208;11.162;2023-08-01T06:15:03;3.55;;;2.00;;
43809;SDS011;29440;48.208;11.162;2023-08-01T06:17:30;4.95;;;1.83;;
43809;SDS011;29440;48.208;11.162;2023-08-01T06:19:55;5.10;;;2.00;;
43809;SDS011;29440;48.208;11.162;2023-08-01T06:22:21;4.93;;;2.00;;
43809;SDS011;29440;48.208;11.162;2023-08-01T06:24:46;4.18;;;2.00;;
43809;SDS011;29440;48.208;11.162;2023-08-01T06:27:12;3.35;;;1.98;;
43809;SDS011;29440;48.208;11.162;2023-08-01T06:29:39;4.10;;;2.03;;
43809;SDS011;29440;48.208;11.162;2023-08-01T06:32:05;3.70;;;2.05;;
43809;SDS011;29440;48.208;11.162;2023-08-01T06:34:31;3.38;;;1.80;;
43809;SDS011;29440;48.208;11.162;2023-08-01T06:36:57;3.72;;;1.88;;
43809;SDS011;29440;48.208;11.162;2023-08-01T06:39:22;3.83;;;1.73;;
43809;SDS011;29440;48.208;11.162;2023-08-01T06:41:48;2.90;;;1.55;;
43809;SDS011;29440;48.208;11.162;2023-08-01T06:44:13;5.13;;;1.92;;
43809;SDS011;29440;48.208;11.162;2023-08-01T06:46:39;5.60;;;1.95;;
43809;SDS011;29440;48.208;11.162;2023-08-01T06:49:04;8.93;;;2.08;;
43809;SDS011;29440;48.208;11.162;2023-08-01T06:51:30;4.15;;;1.90;;
43809;SDS011;29440;48.208;11.162;2023-08-01T06:53:55;2.67;;;1.67;;
43809;SDS011;29440;48.208;11.162;2023-08-01T06:56:21;5.18;;;1.83;;
43809;SDS011;29440;48.208;11.162;2023-08-01T06:58:47;3.60;;;2.10;;
43809;SDS011;29440;48.208;11.162;2023-08-01T07:01:12;4.35;;;1.80;;
43809;SDS011;29440;48.208;11.162;2023-08-01T07:03:38;4.07;;;2.10;;
43809;SDS011;29440;48.208;11.162;2023-08-01T07:06:03;4.35;;;1.90;;
43809;SDS011;29440;48.208;11.162;2023-08-01T07:08:29;4.93;;;1.92;;
43809;SDS011;29440;48.208;11.162;2023-08-01T07:10:54;2.22;;;1.35;;
43809;SDS011;29440;48.208;11.162;2023-08-01T07:13:20;5.90;;;1.88;;
43809;SDS011;29440;48.208;11.162;2023-08-01T07:15:47;2.75;;;1.55;;
43809;SDS011;29440;48.208;11.162;2023-08-01T07:18:13;3.35;;;1.83;;
43809;SDS011;29440;48.208;11.162;2023-08-01T07:20:38;2.78;;;1.20;;
43809;SDS011;29440;48.208;11.162;2023-08-01T07:23:04;3.88;;;2.15;;
43809;SDS011;29440;48.208;11.162;2023-08-01T07:25:29;3.85;;;1.80;;
43809;SDS011;29440;48.208;11.162;2023-08-01T07:27:55;4.25;;;1.85;;
43809;SDS011;29440;48.208;11.162;2023-08-01T07:30:21;5.57;;;2.08;;
43809;SDS011;29440;48.208;11.162;2023-08-01T07:32:46;4.78;;;1.90;;
43809;SDS011;29440;48.208;11.162;2023-08-01T07:35:12;4.55;;;2.13;;
43809;SDS011;29440;48.208;11.162;2023-08-01T07:37:38;3.50;;;1.67;;
43809;SDS011;29440;48.208;11.162;2023-08-01T07:40:05;3.70;;;1.58;;
43809;SDS011;29440;48.208;11.162;2023-08-01T07:42:31;4.18;;;2.05;;
43809;SDS011;29440;48.208;11.162;2023-08-01T07:44:56;3.55;;;1.98;;
43809;SDS011;29440;48.208;11.162;2023-08-01T07:47:22;5.13;;;1.83;;
43809;SDS011;29440;48.208;11.162;2023-08-01T07:49:49;3.67;;;1.60;;
43809;SDS011;29440;48.208;11.162;2023-08-01T07:52:15;3.30;;;1.77;;
43809;SDS011;29440;48.208;11.162;2023-08-01T07:54:40;3.42;;;1.80;;
43809;SDS011;29440;48.208;11.162;2023-08-01T07:57:06;3.60;;;1.80;;
43809;SDS011;29440;48.208;11.162;2023-08-01T07:59:32;5.25;;;1.95;;
43809;SDS011;29440;48.208;11.162;2023-08-01T08:01:57;4.28;;;1.75;;
43809;SDS011;29440;48.208;11.162;2023-08-01T08:04:23;4.05;;;1.73;;
43809;SDS011;29440;48.208;11.162;2023-08-01T08:06:48;3.53;;;1.83;;
43809;SDS011;29440;48.208;11.162;2023-08-01T08:09:14;4.30;;;1.80;;
43809;SDS011;29440;48.208;11.162;2023-08-01T08:11:40;3.65;;;1.70;;
43809;SDS011;29440;48.208;11.162;2023-08-01T08:14:05;3.30;;;1.70;;
43809;SDS011;29440;48.208;11.162;2023-08-01T08:16:31;4.35;;;1.50;;
43809;SDS011;29440;48.208;11.162;2023-08-01T08:18:56;4.97;;;1.90;;
43809;SDS011;29440;48.208;11.162;2023-08-01T08:21:22;3.42;;;1.85;;
43809;SDS011;29440;48.208;11.162;2023-08-01T08:23:47;4.38;;;1.88;;
43809;SDS011;29440;48.208;11.162;2023-08-01T08:26:13;4.10;;;2.00;;
43809;SDS011;29440;48.208;11.162;2023-08-01T08:28:38;4.63;;;1.73;;
43809;SDS011;29440;48.208;11.162;2023-08-01T08:31:05;3.58;;;1.75;;
43809;SDS011;29440;48.208;11.162;2023-08-01T08:33:30;4.90;;;1.83;;
43809;SDS011;29440;48.208;11.162;2023-08-01T08:35:56;5.68;;;1.92;;
43809;SDS011;29440;48.208;11.162;2023-08-01T08:38:21;4.40;;;2.42;;
43809;SDS011;29440;48.208;11.162;2023-08-01T08:43:32;4.28;;;1.48;;
43809;SDS011;29440;48.208;11.162;2023-08-01T08:46:00;5.20;;;2.25;;
43809;SDS011;29440;48.208;11.162;2023-08-01T08:48:26;4.10;;;1.85;;
43809;SDS011;29440;48.208;11.162;2023-08-01T08:50:54;6.03;;;2.28;;
43809;SDS011;29440;48.208;11.162;2023-08-01T08:53:22;5.55;;;2.25;;
43809;SDS011;29440;48.208;11.162;2023-08-01T08:55:48;6.00;;;2.33;;
43809;SDS011;29440;48.208;11.162;2023-08-01T08:58:14;4.75;;;1.80;;
43809;SDS011;29440;48.208;11.162;2023-08-01T09:00:41;3.15;;;1.85;;
43809;SDS011;29440;48.208;11.162;2023-08-01T09:03:08;4.32;;;2.13;;
43809;SDS011;29440;48.208;11.162;2023-08-01T09:05:39;3.03;;;1.88;;
43809;SDS011;29440;48.208;11.162;2023-08-01T09:08:15;5.55;;;2.03;;
43809;SDS011;29440;48.208;11.162;2023-08-01T09:10:44;3.22;;;1.80;;
43809;SDS011;29440;48.208;11.162;2023-08-01T09:13:10;4.78;;;1.70;;
43809;SDS011;29440;48.208;11.162;2023-08-01T09:15:36;5.10;;;2.00;;
43809;SDS011;29440;48.208;11.162;2023-08-01T09:18:05;4.28;;;2.17;;
43809;SDS011;29440;48.208;11.162;2023-08-01T09:20:53;3.72;;;1.80;;
43809;SDS011;29440;48.208;11.162;2023-08-01T09:23:17;5.28;;;2.20;;
43809;SDS011;29440;48.208;11.162;2023-08-01T09:25:43;3.50;;;2.20;;
43809;SDS011;29440;48.208;11.162;2023-08-01T09:28:16;4.43;;;1.80;;
43809;SDS011;29440;48.208;11.162;2023-08-01T09:30:46;4.55;;;2.03;;
43809;SDS011;29440;48.208;11.162;2023-08-01T09:33:17;3.38;;;1.95;;
43809;SDS011;29440;48.208;11.162;2023-08-01T09:35:43;3.53;;;1.85;;
43809;SDS011;29440;48.208;11.162;2023-08-01T09:38:11;4.18;;;1.80;;
43809;SDS011;29440;48.208;11.162;2023-08-01T09:40:39;5.25;;;2.22;;
43809;SDS011;29440;48.208;11.162;2023-08-01T09:43:05;4.57;;;2.05;;
43809;SDS011;29440;48.208;11.162;2023-08-01T09:45:31;4.88;;;1.90;;
43809;SDS011;29440;48.208;11.162;2023-08-01T09:47:56;4.15;;;2.30;;
43809;SDS011;29440;48.208;11.162;2023-08-01T09:50:22;3.03;;;1.70;;
43809;SDS011;29440;48.208;11.162;2023-08-01T09:52:49;4.72;;;2.10;;
43809;SDS011;29440;48.208;11.162;2023-08-01T09:55:33;3.08;;;1.65;;
43809;SDS011;29440;48.208;11.162;2023-08-01T09:57:59;4.53;;;2.25;;
43809;SDS011;29440;48.208;11.162;2023-08-01T10:00:26;3.97;;;2.15;;
43809;SDS011;29440;48.208;11.162;2023-08-01T10:02:53;5.68;;;1.90;;
43809;SDS011;29440;48.208;11.162;2023-08-01T10:05:22;5.30;;;2.60;;
43809;SDS011;29440;48.208;11.162;2023-08-01T10:07:48;4.05;;;1.92;;
43809;SDS011;29440;48.208;11.162;2023-08-01T10:10:16;7.38;;;1.85;;
43809;SDS011;29440;48.208;11.162;2023-08-01T10:12:45;4.50;;;1.95;;
43809;SDS011;29440;48.208;11.162;2023-08-01T10:15:13;3.65;;;1.90;;
43809;SDS011;29440;48.208;11.162;2023-08-01T10:17:40;3.47;;;1.95;;
43809;SDS011;29440;48.208;11.162;2023-08-01T10:20:06;6.00;;;2.13;;
43809;SDS011;29440;48.208;11.162;2023-08-01T10:22:32;4.45;;;2.13;;
43809;SDS011;29440;48.208;11.162;2023-08-01T10:24:59;4.75;;;2.08;;
43809;SDS011;29440;48.208;11.162;2023-08-01T10:27:25;3.97;;;2.55;;
43809;SDS011;29440;48.208;11.162;2023-08-01T10:29:58;4.50;;;2.00;;
43809;SDS011;29440;48.208;11.162;2023-08-01T10:32:38;3.95;;;2.17;;
43809;SDS011;29440;48.208;11.162;2023-08-01T10:35:04;3.45;;;2.00;;
43809;SDS011;29440;48.208;11.162;2023-08-01T10:37:43;7.22;;;2.03;;
43809;SDS011;29440;48.208;11.162;2023-08-01T10:40:12;3.28;;;2.03;;
43809;SDS011;29440;48.208;11.162;2023-08-01T10:42:40;3.33;;;1.98;;
43809;SDS011;29440;48.208;11.162;2023-08-01T10:45:19;3.17;;;1.52;;
43809;SDS011;29440;48.208;11.162;2023-08-01T10:47:47;5.80;;;2.10;;
43809;SDS011;29440;48.208;11.162;2023-08-01T10:50:14;3.28;;;1.52;;
43809;SDS011;29440;48.208;11.162;2023-08-01T10:52:40;3.83;;;1.98;;
43809;SDS011;29440;48.208;11.162;2023-08-01T10:55:06;2.35;;;1.42;;
43809;SDS011;29440;48.208;11.162;2023-08-01T10:57:34;3.65;;;1.80;;
43809;SDS011;29440;48.208;11.162;2023-08-01T11:00:01;3.83;;;1.90;;
43809;SDS011;29440;48.208;11.162;2023-08-01T11:02:29;4.50;;;1.90;;
43809;SDS011;29440;48.208;11.162;2023-08-01T11:04:56;5.63;;;1.60;;
43809;SDS011;29440;48.208;11.162;2023-08-01T11:07:25;2.85;;;1.00;;
43809;SDS011;29440;48.208;11.162;2023-08-01T11:12:29;2.15;;;1.10;;
43809;SDS011;29440;48.208;11.162;2023-08-01T11:15:01;3.75;;;1.52;;
43809;SDS011;29440;48.208;11.162;2023-08-01T11:17:27;2.40;;;1.15;;
43809;SDS011;29440;48.208;11.162;2023-08-01T11:20:03;2.50;;;1.30;;
43809;SDS011;29440;48.208;11.162;2023-08-01T11:22:30;2.03;;;0.95;;
43809;SDS011;29440;48.208;11.162;2023-08-01T11:24:56;2.63;;;1.48;;
43809;SDS011;29440;48.208;11.162;2023-08-01T11:27:22;2.17;;;1.20;;
43809;SDS011;29440;48.208;11.162;2023-08-01T11:29:49;2.28;;;1.20;;
43809;SDS011;29440;48.208;11.162;2023-08-01T11:32:15;3.90;;;1.50;;
43809;SDS011;29440;48.208;11.162;2023-08-01T11:34:40;5.28;;;1.60;;
43809;SDS011;29440;48.208;11.162;2023-08-01T11:37:10;2.55;;;1.40;;
43809;SDS011;29440;48.208;11.162;2023-08-01T11:39:36;3.20;;;1.50;;
43809;SDS011;29440;48.208;11.162;2023-08-01T11:42:02;4.07;;;1.33;;
43809;SDS011;29440;48.208;11.162;2023-08-01T11:44:28;4.07;;;1.50;;
43809;SDS011;29440;48.208;11.162;2023-08-01T11:46:54;2.83;;;1.75;;
43809;SDS011;29440;48.208;11.162;2023-08-01T11:49:20;3.13;;;1.45;;
43809;SDS011;29440;48.208;11.162;2023-08-01T11:51:46;3.53;;;1.60;;
43809;SDS011;29440;48.208;11.162;2023-08-01T11:54:12;4.05;;;1.83;;
43809;SDS011;29440;48.208;11.162;2023-08-01T11:56:42;4.43;;;1.98;;
43809;SDS011;29440;48.208;11.162;2023-08-01T11:59:11;4.22;;;1.83;;
43809;SDS011;29440;48.208;11.162;2023-08-01T12:01:39;6.47;;;1.75;;
43809;SDS011;29440;48.208;11.162;2023-08-01T12:04:05;3.88;;;1.50;;
43809;SDS011;29440;48.208;11.162;2023-08-01T12:06:31;3.25;;;1.77;;
43809;SDS011;29440;48.208;11.162;2023-08-01T12:09:05;5.03;;;1.88;;
43809;SDS011;29440;48.208;11.162;2023-08-01T12:11:36;3.60;;;2.00;;
43809;SDS011;29440;48.208;11.162;2023-08-01T12:14:14;3.60;;;2.10;;
43809;SDS011;29440;48.208;11.162;2023-08-01T12:16:45;4.38;;;1.60;;
43809;SDS011;29440;48.208;11.162;2023-08-01T12:19:16;3.70;;;1.90;;
43809;SDS011;29440;48.208;11.162;2023-08-01T12:21:44;4.63;;;2.08;;
43809;SDS011;29440;48.208;11.162;2023-08-01T12:24:09;5.32;;;1.95;;
43809;SDS011;29440;48.208;11.162;2023-08-01T12:26:35;4.55;;;2.25;;
43809;SDS011;29440;48.208;11.162;2023-08-01T12:29:00;3.50;;;1.48;;
43809;SDS011;29440;48.208;11.162;2023-08-01T12:31:26;7.93;;;2.20;;
43809;SDS011;29440;48.208;11.162;2023-08-01T12:33:52;5.82;;;2.42;;
43809;SDS011;29440;48.208;11.162;2023-08-01T12:36:20;16.38;;;3.53;;
43809;SDS011;29440;48.208;11.162;2023-08-01T12:38:46;6.05;;;1.63;;
43809;SDS011;29440;48.208;11.162;2023-08-01T12:41:15;3.63;;;1.88;;
43809;SDS011;29440;48.208;11.162;2023-08-01T12:43:41;4.07;;;1.45;;
43809;SDS011;29440;48.208;11.162;2023-08-01T12:46:06;3.13;;;1.75;;
43809;SDS011;29440;48.208;11.162;2023-08-01T12:48:32;4.47;;;1.80;;
43809;SDS011;29440;48.208;11.162;2023-08-01T12:50:58;7.30;;;2.05;;
43809;SDS011;29440;48.208;11.162;2023-08-01T12:53:23;3.20;;;1.40;;
43809;SDS011;29440;48.208;11.162;2023-08-01T12:55:50;4.25;;;1.95;;
43809;SDS011;29440;48.208;11.162;2023-08-01T12:58:19;3.72;;;2.10;;
43809;SDS011;29440;48.208;11.162;2023-08-01T13:00:44;2.72;;;1.48;;
43809;SDS011;29440;48.208;11.162;2023-08-01T13:03:10;3.50;;;1.58;;
43809;SDS011;29440;48.208;11.162;2023-08-01T13:05:37;2.53;;;1.67;;
43809;SDS011;29440;48.208;11.162;2023-08-01T13:08:05;6.43;;;2.00;;
43809;SDS011;29440;48.208;11.162;2023-08-01T13:10:31;4.72;;;1.90;;
43809;SDS011;29440;48.208;11.162;2023-08-01T13:12:57;2.25;;;1.25;;
43809;SDS011;29440;48.208;11.162;2023-08-01T13:15:23;3.58;;;1.92;;
43809;SDS011;29440;48.208;11.162;2023-08-01T13:17:49;4.80;;;1.58;;
43809;SDS011;29440;48.208;11.162;2023-08-01T13:20:15;3.28;;;1.50;;
43809;SDS011;29440;48.208;11.162;2023-08-01T13:22:41;2.63;;;1.10;;
43809;SDS011;29440;48.208;11.162;2023-08-01T13:25:07;3.00;;;1.38;;
43809;SDS011;29440;48.208;11.162;2023-08-01T13:27:34;4.78;;;1.38;;
43809;SDS011;29440;48.208;11.162;2023-08-01T13:30:01;2.17;;;1.20;;
43809;SDS011;29440;48.208;11.162;2023-08-01T13:32:27;2.33;;;1.23;;
43809;SDS011;29440;48.208;11.162;2023-08-01T13:34:52;5.47;;;2.10;;
43809;SDS011;29440;48.208;11.162;2023-08-01T13:37:18;2.70;;;1.60;;
43809;SDS011;29440;48.208;11.162;2023-08-01T13:39:43;1.95;;;1.10;;
43809;SDS011;29440;48.208;11.162;2023-08-01T13:42:10;3.72;;;1.60;;
43809;SDS011;29440;48.208;11.162;2023-08-01T13:44:36;2.60;;;1.40;;
43809;SDS011;29440;48.208;11.162;2023-08-01T13:47:02;3.95;;;1.30;;
43809;SDS011;29440;48.208;11.162;2023-08-01T13:49:28;5.80;;;1.27;;
43809;SDS011;29440;48.208;11.162;2023-08-01T13:51:54;4.28;;;1.00;;
43809;SDS011;29440;48.208;11.162;2023-08-01T13:54:20;4.38;;;1.00;;
43809;SDS011;29440;48.208;11.162;2023-08-01T13:56:45;5.38;;;0.88;;
43809;SDS011;29440;48.208;11.162;2023-08-01T13:59:11;1.52;;;0.70;;
43809;SDS011;29440;48.208;11.162;2023-08-01T14:01:36;1.55;;;0.40;;
43809;SDS011;29440;48.208;11.162;2023-08-01T14:04:03;3.10;;;0.65;;
43809;SDS011;29440;48.208;11.162;2023-08-01T14:06:29;1.23;;;0.60;;
43809;SDS011;29440;48.208;11.162;2023-08-01T14:08:55;2.22;;;0.40;;
43809;SDS011;29440;48.208;11.162;2023-08-01T14:11:21;1.92;;;0.30;;
43809;SDS011;29440;48.208;11.162;2023-08-01T14:13:46;2.40;;;0.40;;
43809;SDS011;29440;48.208;11.162;2023-08-01T14:16:12;0.90;;;0.30;;
43809;SDS011;29440;48.208;11.162;2023-08-01T14:18:37;0.90;;;0.40;;
43809;SDS011;29440;48.208;11.162;2023-08-01T14:21:04;3.92;;;0.77;;
43809;SDS011;29440;48.208;11.162;2023-08-01T14:23:30;1.30;;;0.40;;
43809;SDS011;29440;48.208;11.162;2023-08-01T14:25:57;1.73;;;0.65;;
43809;SDS011;29440;48.208;11.162;2023-08-01T14:28:23;1.00;;;0.40;;
43809;SDS011;29440;48.208;11.162;2023-08-01T14:30:48;1.85;;;0.50;;
43809;SDS011;29440;48.208;11.162;2023-08-01T14:33:14;5.82;;;0.50;;